Time;durP1;ratioP1;P1;durP2;ratioP2;P2;SDS_P1;SDS_P2;PMS_P1;PMS_P2;Temp;Humidity;BMP_temperature;BMP_pressure;BME280_temperature;BME280_humidity;BME280_pressure;Samples;Min_cycle;Max_cycle;Signal;HPM_P1;HPM_P2
2022/08/03 00:02:00;;;;;;;;;;;;;;;-144.99;100.00;61100.13;5069575;28;19924;-63
2022/08/03 00:04:27;;;;;;;;;;;;;;;-144.99;100.00;61100.13;5069750;28;20395;-64
2022/08/03 00:06:53;;;;;;;;;;;;;;;-144.99;100.00;61100.13;5070203;28;20304;-63
2022/08/03 00:09:19;;;;;;;;;;;;;;;-144.99;100.00;61100.13;5070568;28;19934;-59
2022/08/03 00:11:46;;;;;;;;;;;;;;;-144.99;100.00;61100.13;5070384;28;19975;-59
2022/08/03 00:14:14;;;;;;;;;;;;;;;-144.99;100.00;61100.13;5072216;28;20073;-58
2022/08/03 00:16:40;;;;;;;;;;;;;;;-144.99;100.00;61100.13;5070683;28;19924;-58
2022/08/03 00:19:06;;;;;;;;;;;;;;;-144.99;100.00;61100.13;5064390;28;20011;-59
2022/08/03 00:21:33;;;;;;;;;;;;;;;-144.99;100.00;61100.13;5071847;28;19935;-59
2022/08/03 00:23:59;;;;;;;;;;;;;;;-144.99;100.00;61100.13;5063368;28;20103;-65
2022/08/03 00:26:26;;;;;;;;;;;;;;;-144.99;100.00;61100.13;5070871;28;19928;-62
2022/08/03 00:28:52;;;;;;;;;;;;;;;-144.99;100.00;61100.13;5070576;28;19931;-63
2022/08/03 00:31:20;;;;;;;;;;;;;;;-144.99;100.00;61100.13;5068851;28;19934;-63
2022/08/03 00:33:46;;;;;;;;;;;;;;;-144.99;100.00;61100.13;5069650;28;19934;-64
2022/08/03 00:36:13;;;;;;;;;;;;;;;-144.99;100.00;61100.13;5069577;28;20012;-64
2022/08/03 00:38:39;;;;;;;;;;;;;;;-144.99;100.00;61100.13;5069938;28;20369;-65
2022/08/03 00:41:05;;;;;;;;;;;;;;;-144.99;100.00;61100.13;5070313;28;19925;-65
2022/08/03 00:43:32;;;;;;;;;;;;;;;-144.99;100.00;61100.13;5073290;28;20348;-64
2022/08/03 00:45:58;;;;;;;;;;;;;;;-144.99;100.00;61100.13;5069657;28;19935;-63
2022/08/03 00:48:26;;;;;;;;;;;;;;;-144.99;100.00;61100.13;5071023;28;20461;-61
2022/08/03 00:50:53;;;;;;;;;;;;;;;-144.99;100.00;61100.13;5069366;28;19931;-61
2022/08/03 00:53:19;;;;;;;;;;;;;;;-144.99;100.00;61100.13;5071701;28;20007;-61
2022/08/03 00:55:46;;;;;;;;;;;;;;;-144.99;100.00;61100.13;5064994;28;20098;-60
2022/08/03 00:58:12;;;;;;;;;;;;;;;-144.99;100.00;61100.13;5070285;28;19932;-62
2022/08/03 01:00:39;;;;;;;;;;;;;;;-144.99;100.00;61100.13;5069572;28;19928;-61
2022/08/03 01:03:06;;;;;;;;;;;;;;;-144.99;100.00;61100.13;5071340;28;20015;-61
2022/08/03 01:05:38;;;;;;;;;;;;;;;-144.99;100.00;61100.13;5069185;28;19968;-61
2022/08/03 01:08:08;;;;;;;;;;;;;;;-144.99;100.00;61100.13;5069469;28;20307;-61
2022/08/03 01:10:38;;;;;;;;;;;;;;;-144.99;100.00;61100.13;5069606;28;19935;-61
2022/08/03 01:13:10;;;;;;;;;;;;;;;-144.99;100.00;61100.13;5073053;28;19930;-61
2022/08/03 01:15:42;;;;;;;;;;;;;;;-144.99;100.00;61100.13;5064532;28;19947;-61
2022/08/03 01:18:12;;;;;;;;;;;;;;;-144.99;100.00;61100.13;5069432;28;20015;-58
2022/08/03 01:20:43;;;;;;;;;;;;;;;-144.99;100.00;61100.13;5072353;28;19989;-57
2022/08/03 01:23:24;;;;;;;;;;;;;;;-144.99;100.00;61100.13;5063743;28;20031;-57
2022/08/03 01:25:59;;;;;;;;;;;;;;;-144.99;100.00;61100.13;5065772;28;19928;-57
2022/08/03 01:28:35;;;;;;;;;;;;;;;-144.99;100.00;61100.13;5068929;28;19964;-57
2022/08/03 01:31:05;;;;;;;;;;;;;;;-144.99;100.00;61100.13;5072459;28;20030;-57
2022/08/03 01:33:39;;;;;;;;;;;;;;;-144.99;100.00;61100.13;5068563;28;20012;-57
2022/08/03 01:36:07;;;;;;;;;;;;;;;-144.99;100.00;61100.13;5062490;28;19931;-58
2022/08/03 01:38:34;;;;;;;;;;;;;;;-144.99;100.00;61100.13;5069046;28;20393;-57
2022/08/03 01:41:04;;;;;;;;;;;;;;;-144.99;100.00;61100.13;5069916;28;19930;-62
2022/08/03 01:43:30;;;;;;;;;;;;;;;-144.99;100.00;61100.13;5064582;28;20010;-61
2022/08/03 01:45:57;;;;;;;;;;;;;;;-144.99;100.00;61100.13;5068946;28;20421;-62
2022/08/03 01:48:25;;;;;;;;;;;;;;;-144.99;100.00;61100.13;5068804;28;20008;-62
2022/08/03 01:50:55;;;;;;;;;;;;;;;-144.99;100.00;61100.13;5067581;28;20028;-61
2022/08/03 01:53:23;;;;;;;;;;;;;;;-144.99;100.00;61100.13;5068077;28;19976;-60
2022/08/03 01:55:52;;;;;;;;;;;;;;;-144.99;100.00;61100.13;5067134;28;20023;-60
2022/08/03 01:58:19;;;;;;;;;;;;;;;-144.99;100.00;61100.13;5069308;28;19967;-60
2022/08/03 02:00:46;;;;;;;;;;;;;;;-144.99;100.00;61100.13;5068420;28;19924;-61
2022/08/03 02:03:13;;;;;;;;;;;;;;;-144.99;100.00;61100.13;5072531;28;19924;-60
2022/08/03 02:05:43;;;;;;;;;;;;;;;-144.99;100.00;61100.13;5068171;28;19931;-59
2022/08/03 02:08:13;;;;;;;;;;;;;;;-144.99;100.00;61100.13;5069178;28;20386;-59
2022/08/03 02:10:41;;;;;;;;;;;;;;;-144.99;100.00;61100.13;5069385;28;19982;-59
2022/08/03 02:13:08;;;;;;;;;;;;;;;-144.99;100.00;61100.13;5068012;28;19983;-59
2022/08/03 02:15:36;;;;;;;;;;;;;;;-144.99;100.00;61100.13;5069128;28;20334;-59
2022/08/03 02:18:04;;;;;;;;;;;;;;;-144.99;100.00;61100.13;5069009;28;20024;-59
2022/08/03 02:20:35;;;;;;;;;;;;;;;-144.99;100.00;61100.13;5067934;28;20359;-59
2022/08/03 02:23:03;;;;;;;;;;;;;;;-144.99;100.00;61100.13;5068723;28;19959;-59
2022/08/03 02:25:30;;;;;;;;;;;;;;;-144.99;100.00;61100.13;5064989;28;19929;-59
2022/08/03 02:27:58;;;;;;;;;;;;;;;-144.99;100.00;61100.13;5071524;28;19924;-60
2022/08/03 02:30:29;;;;;;;;;;;;;;;-144.99;100.00;61100.13;5070032;28;19971;-61
2022/08/03 02:32:57;;;;;;;;;;;;;;;-144.99;100.00;61100.13;5072082;28;19967;-62
2022/08/03 02:35:26;;;;;;;;;;;;;;;-144.99;100.00;61100.13;5076875;28;19959;-61
2022/08/03 02:37:55;;;;;;;;;;;;;;;-144.99;100.00;61100.13;5076601;28;19946;-62
2022/08/03 02:40:24;;;;;;;;;;;;;;;-144.99;100.00;61100.13;5075892;28;20003;-61
2022/08/03 02:42:53;;;;;;;;;;;;;;;-144.99;100.00;61100.13;5074249;28;20030;-61
2022/08/03 02:45:20;;;;;;;;;;;;;;;-144.99;100.00;61100.13;5076744;28;19947;-61
2022/08/03 02:47:48;;;;;;;;;;;;;;;-144.99;100.00;61100.13;5074769;28;20043;-62
2022/08/03 02:50:16;;;;;;;;;;;;;;;-144.99;100.00;61100.13;5074550;28;19935;-60
2022/08/03 02:52:45;;;;;;;;;;;;;;;-144.99;100.00;61100.13;5073748;28;19944;-61
2022/08/03 02:55:12;;;;;;;;;;;;;;;-144.99;100.00;61100.13;5071895;28;19939;-61
2022/08/03 02:57:40;;;;;;;;;;;;;;;-144.99;100.00;61100.13;5074452;28;20015;-61
2022/08/03 03:00:08;;;;;;;;;;;;;;;-144.99;100.00;61100.13;5072662;28;19972;-61
2022/08/03 03:02:35;;;;;;;;;;;;;;;-144.99;100.00;61100.13;5075732;28;20007;-61
2022/08/03 03:05:01;;;;;;;;;;;;;;;-144.99;100.00;61100.13;5071869;28;19924;-62
2022/08/03 03:07:28;;;;;;;;;;;;;;;-144.99;100.00;61100.13;5073553;28;20463;-61
2022/08/03 03:09:55;;;;;;;;;;;;;;;-144.99;100.00;61100.13;5074608;28;20354;-61
2022/08/03 03:12:22;;;;;;;;;;;;;;;-144.99;100.00;61100.13;5069197;28;19967;-60
2022/08/03 03:14:50;;;;;;;;;;;;;;;-144.99;100.00;61100.13;5070643;28;20035;-60
2022/08/03 03:17:17;;;;;;;;;;;;;;;-144.99;100.00;61100.13;5072257;28;19929;-61
2022/08/03 03:19:44;;;;;;;;;;;;;;;-144.99;100.00;61100.13;5071694;28;19928;-60
2022/08/03 03:22:11;;;;;;;;;;;;;;;-144.99;100.00;61100.13;5074730;28;19928;-60
2022/08/03 03:24:38;;;;;;;;;;;;;;;-144.99;100.00;61100.13;5066406;28;20284;-60
2022/08/03 03:27:05;;;;;;;;;;;;;;;-144.99;100.00;61100.13;5072351;28;20019;-60
2022/08/03 03:29:32;;;;;;;;;;;;;;;-144.99;100.00;61100.13;5072332;28;20023;-59
2022/08/03 03:32:00;;;;;;;;;;;;;;;-144.99;100.00;61100.13;5071234;28;19925;-60
2022/08/03 03:34:28;;;;;;;;;;;;;;;-144.99;100.00;61100.13;5072543;28;20456;-61
2022/08/03 03:36:55;;;;;;;;;;;;;;;-144.99;100.00;61100.13;5071022;28;20015;-61
2022/08/03 03:39:21;;;;;;;;;;;;;;;-144.99;100.00;61100.13;5085320;22;19983;-61
2022/08/03 03:41:48;;;;;;;;;;;;;;;-144.99;100.00;61100.13;5058426;28;20121;-62
2022/08/03 03:44:15;;;;;;;;;;;;;;;-144.99;100.00;61100.13;5067602;28;20316;-62
2022/08/03 03:46:42;;;;;;;;;;;;;;;-144.99;100.00;61100.13;5071929;28;19925;-62
2022/08/03 03:49:10;;;;;;;;;;;;;;;-144.99;100.00;61100.13;5064220;28;20027;-61
2022/08/03 03:51:36;;;;;;;;;;;;;;;-144.99;100.00;61100.13;5064200;28;20405;-61
2022/08/03 03:54:04;;;;;;;;;;;;;;;-144.99;100.00;61100.13;5060265;28;19929;-61
2022/08/03 03:56:31;;;;;;;;;;;;;;;-144.99;100.00;61100.13;5051402;28;19925;-64
2022/08/03 03:58:57;;;;;;;;;;;;;;;-144.99;100.00;61100.13;5055303;28;20256;-64
2022/08/03 04:01:24;;;;;;;;;;;;;;;-144.99;100.00;61100.13;5066483;28;20039;-62
2022/08/03 04:03:50;;;;;;;;;;;;;;;-144.99;100.00;61100.13;5059863;28;19979;-62
2022/08/03 04:11:49;;;;;;;;;;;;;;;-144.99;100.00;61100.13;5057014;28;19932;-61
2022/08/03 04:14:18;;;;;;;;;;;;;;;-144.99;100.00;61100.13;5066407;28;20032;-63
2022/08/03 04:16:47;;;;;;;;;;;;;;;-144.99;100.00;61100.13;5071515;28;20430;-64
2022/08/03 04:19:15;;;;;;;;;;;;;;;-144.99;100.00;61100.13;5069774;28;19924;-64
2022/08/03 04:21:44;;;;;;;;;;;;;;;-144.99;100.00;61100.13;5062357;28;19930;-65
2022/08/03 04:24:11;;;;;;;;;;;;;;;-144.99;100.00;61100.13;5064764;28;19935;-64
2022/08/03 04:26:40;;;;;;;;;;;;;;;-144.99;100.00;61100.13;5070344;28;20373;-65
2022/08/03 04:29:07;;;;;;;;;;;;;;;-144.99;100.00;61100.13;5051452;28;20031;-64
2022/08/03 04:31:35;;;;;;;;;;;;;;;-144.99;100.00;61100.13;5060320;28;19932;-64
2022/08/03 04:34:02;;;;;;;;;;;;;;;-144.99;100.00;61100.13;5066845;28;19924;-64
2022/08/03 04:36:31;;;;;;;;;;;;;;;-144.99;100.00;61100.13;5070751;28;20027;-64
2022/08/03 04:39:02;;;;;;;;;;;;;;;-144.99;100.00;61100.13;5071030;28;19924;-64
2022/08/03 04:41:30;;;;;;;;;;;;;;;-144.99;100.00;61100.13;5065760;28;19925;-64
2022/08/03 04:43:58;;;;;;;;;;;;;;;-144.99;100.00;61100.13;5056192;28;19925;-67
2022/08/03 04:46:28;;;;;;;;;;;;;;;-144.99;100.00;61100.13;5069209;28;19960;-68
2022/08/03 04:48:54;;;;;;;;;;;;;;;-144.99;100.00;61100.13;5064230;28;19963;-68
2022/08/03 04:51:21;;;;;;;;;;;;;;;-144.99;100.00;61100.13;5061809;28;19929;-68
2022/08/03 04:53:47;;;;;;;;;;;;;;;-144.99;100.00;61100.13;5059200;28;19925;-70
2022/08/03 04:56:15;;;;;;;;;;;;;;;-144.99;100.00;61100.13;5050982;28;19971;-68
2022/08/03 04:58:42;;;;;;;;;;;;;;;-144.99;100.00;61100.13;4704279;28;10000252;-69
2022/08/03 05:01:08;;;;;;;;;;;;;;;-144.99;100.00;61100.13;5058069;28;20035;-71
2022/08/03 05:03:34;;;;;;;;;;;;;;;-144.99;100.00;61100.13;5058188;28;20219;-63
2022/08/03 05:06:01;;;;;;;;;;;;;;;-144.99;100.00;61100.13;5060886;28;20002;-63
2022/08/03 05:08:28;;;;;;;;;;;;;;;-144.99;100.00;61100.13;5067341;28;19968;-63
2022/08/03 05:10:55;;;;;;;;;;;;;;;-144.99;100.00;61100.13;5058674;28;19959;-63
2022/08/03 05:13:22;;;;;;;;;;;;;;;-144.99;100.00;61100.13;5057631;28;20503;-63
2022/08/03 05:15:49;;;;;;;;;;;;;;;-144.99;100.00;61100.13;5064729;28;19928;-64
2022/08/03 05:18:16;;;;;;;;;;;;;;;-144.99;100.00;61100.13;5067000;28;20499;-64
2022/08/03 05:20:42;;;;;;;;;;;;;;;-144.99;100.00;61100.13;5063736;28;20293;-63
2022/08/03 05:23:08;;;;;;;;;;;;;;;-144.99;100.00;61100.13;5060357;28;20528;-63
2022/08/03 05:25:35;;;;;;;;;;;;;;;-144.99;100.00;61100.13;5054341;28;19939;-64
2022/08/03 05:28:01;;;;;;;;;;;;;;;-144.99;100.00;61100.13;5061276;28;19928;-64
2022/08/03 05:30:29;;;;;;;;;;;;;;;-144.99;100.00;61100.13;5061243;28;20007;-64
2022/08/03 05:32:55;;;;;;;;;;;;;;;-144.99;100.00;61100.13;5060466;28;19939;-64
2022/08/03 05:35:24;;;;;;;;;;;;;;;-144.99;100.00;61100.13;5052610;28;20385;-63
2022/08/03 05:37:50;;;;;;;;;;;;;;;-144.99;100.00;61100.13;5055711;28;19932;-64
2022/08/03 05:40:17;;;;;;;;;;;;;;;-144.99;100.00;61100.13;5063961;28;19928;-64
2022/08/03 05:42:43;;;;;;;;;;;;;;;-144.99;100.00;61100.13;5066769;28;19925;-64
2022/08/03 05:45:15;;;;;;;;;;;;;;;-144.99;100.00;61100.13;5066899;28;20414;-64
2022/08/03 05:47:43;;;;;;;;;;;;;;;-144.99;100.00;61100.13;5061213;28;19925;-64
2022/08/03 05:50:10;;;;;;;;;;;;;;;-144.99;100.00;61100.13;5060198;28;19985;-63
2022/08/03 05:52:36;;;;;;;;;;;;;;;-144.99;100.00;61100.13;5056674;28;20345;-64
2022/08/03 05:55:03;;;;;;;;;;;;;;;-144.99;100.00;61100.13;5062950;28;19929;-63
2022/08/03 05:57:29;;;;;;;;;;;;;;;-144.99;100.00;61100.13;5063295;28;19971;-64
2022/08/03 05:59:55;;;;;;;;;;;;;;;-144.99;100.00;61100.13;5054088;28;20292;-64
2022/08/03 06:02:22;;;;;;;;;;;;;;;-144.99;100.00;61100.13;5047217;28;19970;-63
2022/08/03 06:04:50;;;;;;;;;;;;;;;-144.99;100.00;61100.13;5047114;28;20007;-64
2022/08/03 06:07:16;;;;;;;;;;;;;;;-144.99;100.00;61100.13;5054034;28;19930;-65
2022/08/03 06:09:42;;;;;;;;;;;;;;;-144.99;100.00;61100.13;5055458;28;19925;-64
2022/08/03 06:12:09;;;;;;;;;;;;;;;-144.99;100.00;61100.13;5048497;28;19932;-64
2022/08/03 06:14:36;;;;;;;;;;;;;;;-144.99;100.00;61100.13;5063113;28;20289;-64
2022/08/03 06:17:02;;;;;;;;;;;;;;;-144.99;100.00;61100.13;5066645;28;20366;-63
2022/08/03 06:19:29;;;;;;;;;;;;;;;-144.99;100.00;61100.13;5057311;28;20509;-63
2022/08/03 06:21:57;;;;;;;;;;;;;;;-144.99;100.00;61100.13;5060612;28;20031;-65
2022/08/03 06:24:23;;;;;;;;;;;;;;;-144.99;100.00;61100.13;5062534;28;20377;-63
2022/08/03 06:26:50;;;;;;;;;;;;;;;-144.99;100.00;61100.13;5062375;28;20035;-66
2022/08/03 06:29:16;;;;;;;;;;;;;;;-144.99;100.00;61100.13;5051319;28;20019;-65
2022/08/03 06:31:42;;;;;;;;;;;;;;;-144.99;100.00;61100.13;5065181;28;19924;-64
2022/08/03 06:34:09;;;;;;;;;;;;;;;-144.99;100.00;61100.13;5063931;28;19925;-64
2022/08/03 06:36:35;;;;;;;;;;;;;;;-144.99;100.00;61100.13;5050039;28;20398;-64
2022/08/03 06:39:04;;;;;;;;;;;;;;;-144.99;100.00;61100.13;4704262;28;10000331;-63
2022/08/03 06:41:30;;;;;;;;;;;;;;;-144.99;100.00;61100.13;5067962;28;20023;-64
2022/08/03 06:43:57;;;;;;;;;;;;;;;-144.99;100.00;61100.13;5072861;28;20324;-62
2022/08/03 06:46:23;;;;;;;;;;;;;;;-144.99;100.00;61100.13;5072219;28;20019;-63
2022/08/03 06:48:49;;;;;;;;;;;;;;;-144.99;100.00;61100.13;5068383;28;20078;-62
2022/08/03 06:51:16;;;;;;;;;;;;;;;-144.99;100.00;61100.13;5061295;28;19955;-64
2022/08/03 06:53:42;;;;;;;;;;;;;;;-144.99;100.00;61100.13;5067198;28;19928;-63
2022/08/03 06:56:10;;;;;;;;;;;;;;;-144.99;100.00;61100.13;5058376;28;19928;-64
2022/08/03 06:58:37;;;;;;;;;;;;;;;-144.99;100.00;61100.13;5051197;28;19935;-63
2022/08/03 07:01:03;;;;;;;;;;;;;;;-144.99;100.00;61100.13;5057428;28;20226;-64
2022/08/03 07:03:30;;;;;;;;;;;;;;;-144.99;100.00;61100.13;5051726;28;20012;-64
2022/08/03 07:05:56;;;;;;;;;;;;;;;-144.99;100.00;61100.13;5050974;28;20011;-64
2022/08/03 07:08:23;;;;;;;;;;;;;;;-144.99;100.00;61100.13;5058199;28;19925;-64
2022/08/03 07:10:50;;;;;;;;;;;;;;;-144.99;100.00;61100.13;5059643;28;19933;-64
2022/08/03 07:13:17;;;;;;;;;;;;;;;-144.99;100.00;61100.13;5069198;28;20293;-65
2022/08/03 07:15:44;;;;;;;;;;;;;;;-144.99;100.00;61100.13;5064034;28;20028;-65
2022/08/03 07:18:10;;;;;;;;;;;;;;;-144.99;100.00;61100.13;5063492;28;20300;-64
2022/08/03 07:20:37;;;;;;;;;;;;;;;-144.99;100.00;61100.13;5070321;28;20217;-66
2022/08/03 07:23:03;;;;;;;;;;;;;;;-144.99;100.00;61100.13;5070588;28;19970;-65
2022/08/03 07:25:29;;;;;;;;;;;;;;;-144.99;100.00;61100.13;5060822;28;20015;-65
2022/08/03 07:27:56;;;;;;;;;;;;;;;-144.99;100.00;61100.13;5068551;28;20032;-64
2022/08/03 07:30:24;;;;;;;;;;;;;;;-144.99;100.00;61100.13;5052635;28;19958;-64
2022/08/03 07:32:50;;;;;;;;;;;;;;;-144.99;100.00;61100.13;5069204;28;20313;-64
2022/08/03 07:35:17;;;;;;;;;;;;;;;-144.99;100.00;61100.13;5069304;28;20007;-64
2022/08/03 07:37:43;;;;;;;;;;;;;;;-144.99;100.00;61100.13;5069817;28;19993;-63
2022/08/03 07:40:09;;;;;;;;;;;;;;;-144.99;100.00;61100.13;5062067;28;19929;-65
2022/08/03 07:42:36;;;;;;;;;;;;;;;-144.99;100.00;61100.13;5070355;28;19924;-63
2022/08/03 07:45:02;;;;;;;;;;;;;;;-144.99;100.00;61100.13;5063077;28;19990;-64
2022/08/03 07:47:30;;;;;;;;;;;;;;;-144.99;100.00;61100.13;5050912;28;20361;-65
2022/08/03 07:49:57;;;;;;;;;;;;;;;-144.99;100.00;61100.13;5063600;28;19924;-64
2022/08/03 07:55:23;;;;;;;;;;;;;;;-144.99;100.00;61100.13;5025580;28;20347;-64
2022/08/03 07:57:59;;;;;;;;;;;;;;;-144.99;100.00;61100.13;5030297;28;20434;-65
2022/08/03 08:00:26;;;;;;;;;;;;;;;-144.99;100.00;61100.13;5052057;28;19932;-66
2022/08/03 08:02:53;;;;;;;;;;;;;;;-144.99;100.00;61100.13;5067561;28;20362;-64
2022/08/03 08:05:20;;;;;;;;;;;;;;;-144.99;100.00;61100.13;5068702;28;20292;-64
2022/08/03 08:07:46;;;;;;;;;;;;;;;-144.99;100.00;61100.13;5044800;28;19979;-64
2022/08/03 08:10:13;;;;;;;;;;;;;;;-144.99;100.00;61100.13;5058718;28;20320;-66
2022/08/03 08:12:40;;;;;;;;;;;;;;;-144.99;100.00;61100.13;5048891;28;19929;-65
2022/08/03 08:15:07;;;;;;;;;;;;;;;-144.99;100.00;61100.13;5068071;28;19938;-64
2022/08/03 08:17:40;;;;;;;;;;;;;;;-144.99;100.00;61100.13;5063275;28;19935;-65
2022/08/03 08:20:09;;;;;;;;;;;;;;;-144.99;100.00;61100.13;5065281;28;19925;-65
2022/08/03 08:22:35;;;;;;;;;;;;;;;-144.99;100.00;61100.13;5059953;28;20023;-64
2022/08/03 08:25:02;;;;;;;;;;;;;;;-144.99;100.00;61100.13;5052211;28;19983;-64
2022/08/03 08:27:28;;;;;;;;;;;;;;;-144.99;100.00;61100.13;5050890;28;20316;-64
2022/08/03 08:29:55;;;;;;;;;;;;;;;-144.99;100.00;61100.13;5053604;28;20393;-64
2022/08/03 08:32:21;;;;;;;;;;;;;;;-144.99;100.00;61100.13;5068075;28;19938;-66
2022/08/03 08:34:48;;;;;;;;;;;;;;;-144.99;100.00;61100.13;5055174;28;20367;-65
2022/08/03 08:37:15;;;;;;;;;;;;;;;-144.99;100.00;61100.13;5069512;28;19928;-64
2022/08/03 08:39:42;;;;;;;;;;;;;;;-144.99;100.00;61100.13;5059316;28;20342;-65
2022/08/03 08:42:09;;;;;;;;;;;;;;;-144.99;100.00;61100.13;5066220;28;19928;-66
2022/08/03 08:44:36;;;;;;;;;;;;;;;-144.99;100.00;61100.13;5058063;28;19924;-66
2022/08/03 08:47:03;;;;;;;;;;;;;;;-144.99;100.00;61100.13;5048944;28;19928;-67
2022/08/03 08:49:32;;;;;;;;;;;;;;;-144.99;100.00;61100.13;5053415;28;20574;-65
2022/08/03 08:51:59;;;;;;;;;;;;;;;-144.99;100.00;61100.13;5056461;28;19929;-65
2022/08/03 08:54:27;;;;;;;;;;;;;;;-144.99;100.00;61100.13;5048077;28;19929;-65
2022/08/03 08:56:58;;;;;;;;;;;;;;;-144.99;100.00;61100.13;5058103;28;20015;-65
2022/08/03 08:59:25;;;;;;;;;;;;;;;-144.99;100.00;61100.13;5063975;28;19925;-65
2022/08/03 09:01:55;;;;;;;;;;;;;;;-144.99;100.00;61100.13;5061378;28;20297;-65
2022/08/03 09:04:22;;;;;;;;;;;;;;;-144.99;100.00;61100.13;5056226;28;19932;-67
2022/08/03 09:06:48;;;;;;;;;;;;;;;-144.99;100.00;61100.13;5064349;28;19928;-66
2022/08/03 09:09:15;;;;;;;;;;;;;;;-144.99;100.00;61100.13;5054749;28;20031;-67
2022/08/03 09:11:43;;;;;;;;;;;;;;;-144.99;100.00;61100.13;5066167;28;20023;-66
2022/08/03 09:14:10;;;;;;;;;;;;;;;-144.99;100.00;61100.13;5048024;28;20010;-68
2022/08/03 09:16:37;;;;;;;;;;;;;;;-144.99;100.00;61100.13;5048387;28;20428;-66
2022/08/03 09:19:12;;;;;;;;;;;;;;;-144.99;100.00;61100.13;5056246;28;20425;-66
2022/08/03 09:21:38;;;;;;;;;;;;;;;-144.99;100.00;61100.13;5046514;28;20211;-65
2022/08/03 09:24:06;;;;;;;;;;;;;;;-144.99;100.00;61100.13;5051345;28;19928;-65
2022/08/03 09:26:33;;;;;;;;;;;;;;;-144.99;100.00;61100.13;5047768;28;20015;-66
2022/08/03 09:29:02;;;;;;;;;;;;;;;-144.99;100.00;61100.13;5064254;28;20188;-66
2022/08/03 09:31:32;;;;;;;;;;;;;;;-144.99;100.00;61100.13;5060581;28;19932;-66
2022/08/03 09:34:02;;;;;;;;;;;;;;;-144.99;100.00;61100.13;5066483;28;19978;-66
2022/08/03 09:36:39;;;;;;;;;;;;;;;-144.99;100.00;61100.13;5062659;28;19928;-66
2022/08/03 09:39:07;;;;;;;;;;;;;;;-144.99;100.00;61100.13;5058919;28;20023;-66
2022/08/03 09:41:33;;;;;;;;;;;;;;;-144.99;100.00;61100.13;5095106;22;19928;-63
2022/08/03 09:44:01;;;;;;;;;;;;;;;-144.99;100.00;61100.13;5106996;28;19975;-62
2022/08/03 09:46:30;;;;;;;;;;;;;;;-144.99;100.00;61100.13;5113604;27;20360;-62
2022/08/03 09:49:12;;;;;;;;;;;;;;;-144.99;100.00;61100.13;5094911;28;19931;-62
2022/08/03 09:51:38;;;;;;;;;;;;;;;-144.99;100.00;61100.13;5104433;27;20050;-63
2022/08/03 09:54:06;;;;;;;;;;;;;;;-144.99;100.00;61100.13;5107474;28;20010;-63
2022/08/03 09:56:39;;;;;;;;;;;;;;;-144.99;100.00;61100.13;5120127;27;19949;-62
2022/08/03 09:59:07;;;;;;;;;;;;;;;-144.99;100.00;61100.13;5106593;27;20359;-63
2022/08/03 10:01:34;;;;;;;;;;;;;;;-144.99;100.00;61100.13;5112023;27;19928;-63
2022/08/03 10:04:01;;;;;;;;;;;;;;;-144.99;100.00;61100.13;5117018;27;20402;-62
2022/08/03 10:06:27;;;;;;;;;;;;;;;-144.99;100.00;61100.13;5106808;27;19927;-62
2022/08/03 10:09:05;;;;;;;;;;;;;;;-144.99;100.00;61100.13;5102392;27;20019;-63
2022/08/03 10:11:33;;;;;;;;;;;;;;;-144.99;100.00;61100.13;5104380;28;20312;-62
2022/08/03 10:14:00;;;;;;;;;;;;;;;-144.99;100.00;61100.13;5114073;28;19975;-64
2022/08/03 10:16:33;;;;;;;;;;;;;;;-144.99;100.00;61100.13;5103656;28;19923;-64
2022/08/03 10:18:59;;;;;;;;;;;;;;;-144.99;100.00;61100.13;5105395;28;20411;-63
2022/08/03 10:21:26;;;;;;;;;;;;;;;-144.99;100.00;61100.13;5112250;28;20356;-64
2022/08/03 10:23:54;;;;;;;;;;;;;;;-144.99;100.00;61100.13;5115372;28;20222;-63
2022/08/03 10:26:22;;;;;;;;;;;;;;;-144.99;100.00;61100.13;4748253;28;10000563;-64
2022/08/03 10:28:49;;;;;;;;;;;;;;;-144.99;100.00;61100.13;5102699;28;19924;-64
2022/08/03 10:31:16;;;;;;;;;;;;;;;-144.99;100.00;61100.13;5111140;28;19950;-63
2022/08/03 10:33:47;;;;;;;;;;;;;;;-144.99;100.00;61100.13;5111585;28;19927;-64
2022/08/03 10:36:14;;;;;;;;;;;;;;;-144.99;100.00;61100.13;5106580;28;19971;-63
2022/08/03 10:38:44;;;;;;;;;;;;;;;-144.99;100.00;61100.13;5105659;28;20377;-63
2022/08/03 10:41:12;;;;;;;;;;;;;;;-144.99;100.00;61100.13;5115288;28;20311;-64
2022/08/03 10:43:43;;;;;;;;;;;;;;;-144.99;100.00;61100.13;5117049;28;19924;-63
2022/08/03 10:46:09;;;;;;;;;;;;;;;-144.99;100.00;61100.13;5117747;28;20527;-63
2022/08/03 10:48:36;;;;;;;;;;;;;;;-144.99;100.00;61100.13;5101451;28;19965;-63
2022/08/03 10:51:05;;;;;;;;;;;;;;;-144.99;100.00;61100.13;5107452;28;20022;-63
2022/08/03 10:53:36;;;;;;;;;;;;;;;-144.99;100.00;61100.13;5119177;28;19923;-63
2022/08/03 10:58:48;;;;;;;;;;;;;;;-144.99;100.00;61100.13;5095245;28;20451;-64
2022/08/03 11:01:15;;;;;;;;;;;;;;;-144.99;100.00;61100.13;5109723;28;19980;-64
2022/08/03 11:03:56;;;;;;;;;;;;;;;-144.99;100.00;61100.13;5106303;28;19996;-64
2022/08/03 11:06:24;;;;;;;;;;;;;;;-144.99;100.00;61100.13;5102262;28;19924;-63
2022/08/03 11:09:11;;;;;;;;;;;;;;;-144.99;100.00;61100.13;5102556;28;19932;-63
2022/08/03 11:11:38;;;;;;;;;;;;;;;-144.99;100.00;61100.13;5103592;28;19935;-63
2022/08/03 11:14:06;;;;;;;;;;;;;;;-144.99;100.00;61100.13;5106420;28;20253;-63
2022/08/03 11:16:34;;;;;;;;;;;;;;;-144.99;100.00;61100.13;5112112;28;19968;-63
2022/08/03 11:19:02;;;;;;;;;;;;;;;-144.99;100.00;61100.13;5098374;28;20290;-63
2022/08/03 11:21:46;;;;;;;;;;;;;;;-144.99;100.00;61100.13;5105382;28;20384;-63
2022/08/03 11:24:28;;;;;;;;;;;;;;;-144.99;100.00;61100.13;5112114;28;20026;-64
2022/08/03 11:27:09;;;;;;;;;;;;;;;-144.99;100.00;61100.13;5103287;28;20026;-63
2022/08/03 11:29:53;;;;;;;;;;;;;;;-144.99;100.00;61100.13;5108845;28;20024;-63
2022/08/03 11:32:34;;;;;;;;;;;;;;;-144.99;100.00;61100.13;5111605;27;20022;-63
2022/08/03 11:35:07;;;;;;;;;;;;;;;-144.99;100.00;61100.13;5108315;28;20018;-64
2022/08/03 11:37:33;;;;;;;;;;;;;;;-144.99;100.00;61100.13;5109629;28;19983;-64
2022/08/03 11:40:00;;;;;;;;;;;;;;;-144.99;100.00;61100.13;5116572;27;19928;-63
2022/08/03 11:42:46;;;;;;;;;;;;;;;-144.99;100.00;61100.13;5112763;27;19947;-63
2022/08/03 11:45:14;;;;;;;;;;;;;;;-144.99;100.00;61100.13;5116025;27;19947;-63
2022/08/03 11:47:43;;;;;;;;;;;;;;;-144.99;100.00;61100.13;5118090;27;19973;-63
2022/08/03 11:50:09;;;;;;;;;;;;;;;-144.99;100.00;61100.13;5105563;28;19932;-62
2022/08/03 11:52:37;;;;;;;;;;;;;;;-144.99;100.00;61100.13;5104585;28;20047;-63
2022/08/03 11:55:08;;;;;;;;;;;;;;;-144.99;100.00;61100.13;5118016;27;20451;-63
2022/08/03 11:57:35;;;;;;;;;;;;;;;-144.99;100.00;61100.13;5118696;27;20016;-63
2022/08/03 12:00:02;;;;;;;;;;;;;;;-144.99;100.00;61100.13;5110339;27;20482;-63
2022/08/03 12:02:30;;;;;;;;;;;;;;;-144.99;100.00;61100.13;5109316;27;19927;-63
2022/08/03 12:04:59;;;;;;;;;;;;;;;-144.99;100.00;61100.13;5117037;27;19927;-62
2022/08/03 12:07:26;;;;;;;;;;;;;;;-144.99;100.00;61100.13;5107120;27;19924;-63
2022/08/03 12:10:05;;;;;;;;;;;;;;;-144.99;100.00;61100.13;5115810;27;19932;-63
2022/08/03 12:12:32;;;;;;;;;;;;;;;-144.99;100.00;61100.13;5104861;28;20363;-62
2022/08/03 12:14:58;;;;;;;;;;;;;;;-144.99;100.00;61100.13;5108600;28;19923;-64
2022/08/03 12:17:33;;;;;;;;;;;;;;;-144.99;100.00;61100.13;5114705;27;20491;-64
2022/08/03 12:20:00;;;;;;;;;;;;;;;-144.99;100.00;61100.13;5101597;28;20331;-64
2022/08/03 12:22:33;;;;;;;;;;;;;;;-144.99;100.00;61100.13;5110894;27;19924;-66
2022/08/03 12:24:59;;;;;;;;;;;;;;;-144.99;100.00;61100.13;5104374;28;20408;-67
2022/08/03 12:27:28;;;;;;;;;;;;;;;-144.99;100.00;61100.13;5104682;27;19935;-65
2022/08/03 12:29:56;;;;;;;;;;;;;;;-144.99;100.00;61100.13;5104019;28;19932;-65
2022/08/03 12:32:22;;;;;;;;;;;;;;;-144.99;100.00;61100.13;5106206;27;20019;-65
2022/08/03 12:34:50;;;;;;;;;;;;;;;-144.99;100.00;61100.13;5105070;28;20014;-67